sensor_id;sensor_type;location;lat;lon;timestamp;temperature;humidity
27439;DHT22;14887;51.252;7.470;2024-03-08T00:01:36;0.10;1.00
27439;DHT22;14887;51.252;7.470;2024-03-08T00:04:02;0.00;99.90
27439;DHT22;14887;51.252;7.470;2024-03-08T00:06:28;0.10;99.90
27439;DHT22;14887;51.252;7.470;2024-03-08T00:08:54;0.00;99.90
27439;DHT22;14887;51.252;7.470;2024-03-08T00:11:19;0.00;1.00
27439;DHT22;14887;51.252;7.470;2024-03-08T00:13:46;0.00;1.00
27439;DHT22;14887;51.252;7.470;2024-03-08T00:16:12;0.00;1.00
27439;DHT22;14887;51.252;7.470;2024-03-08T00:18:41;0.00;1.00
27439;DHT22;14887;51.252;7.470;2024-03-08T00:21:07;-0.10;1.00
27439;DHT22;14887;51.252;7.470;2024-03-08T00:23:34;-0.10;1.00
27439;DHT22;14887;51.252;7.470;2024-03-08T00:26:00;-0.10;1.00
27439;DHT22;14887;51.252;7.470;2024-03-08T00:28:26;-0.10;1.00
27439;DHT22;14887;51.252;7.470;2024-03-08T00:30:52;-0.10;1.00
27439;DHT22;14887;51.252;7.470;2024-03-08T00:33:18;-0.10;1.00
27439;DHT22;14887;51.252;7.470;2024-03-08T00:35:44;-0.10;1.00
27439;DHT22;14887;51.252;7.470;2024-03-08T00:38:11;-0.10;1.00
27439;DHT22;14887;51.252;7.470;2024-03-08T00:40:39;-0.10;1.00
27439;DHT22;14887;51.252;7.470;2024-03-08T00:43:08;-0.10;1.00
27439;DHT22;14887;51.252;7.470;2024-03-08T00:45:34;-0.20;1.00
27439;DHT22;14887;51.252;7.470;2024-03-08T00:48:00;-0.20;1.00
27439;DHT22;14887;51.252;7.470;2024-03-08T00:50:25;-0.20;1.00
27439;DHT22;14887;51.252;7.470;2024-03-08T00:52:51;-0.20;56.40
27439;DHT22;14887;51.252;7.470;2024-03-08T00:55:17;-0.20;1.00
27439;DHT22;14887;51.252;7.470;2024-03-08T00:57:42;-0.30;54.20
27439;DHT22;14887;51.252;7.470;2024-03-08T01:00:08;-0.30;99.90
27439;DHT22;14887;51.252;7.470;2024-03-08T01:02:35;-0.30;99.90
27439;DHT22;14887;51.252;7.470;2024-03-08T01:05:02;-0.30;99.90
27439;DHT22;14887;51.252;7.470;2024-03-08T01:07:28;-0.30;99.90
27439;DHT22;14887;51.252;7.470;2024-03-08T01:09:53;-0.30;99.90
27439;DHT22;14887;51.252;7.470;2024-03-08T01:12:19;-0.30;99.90
27439;DHT22;14887;51.252;7.470;2024-03-08T01:14:47;-0.30;99.90
27439;DHT22;14887;51.252;7.470;2024-03-08T01:17:13;-0.30;99.90
27439;DHT22;14887;51.252;7.470;2024-03-08T01:19:38;-0.30;99.90
27439;DHT22;14887;51.252;7.470;2024-03-08T01:22:05;-0.30;99.90
27439;DHT22;14887;51.252;7.470;2024-03-08T01:24:30;-0.30;1.00
27439;DHT22;14887;51.252;7.470;2024-03-08T01:26:57;-0.30;99.90
27439;DHT22;14887;51.252;7.470;2024-03-08T01:29:22;-0.20;99.90
27439;DHT22;14887;51.252;7.470;2024-03-08T01:31:51;-0.20;99.90
27439;DHT22;14887;51.252;7.470;2024-03-08T01:34:17;-0.20;99.90
27439;DHT22;14887;51.252;7.470;2024-03-08T01:36:44;-0.20;99.90
27439;DHT22;14887;51.252;7.470;2024-03-08T01:39:10;-0.20;99.90
27439;DHT22;14887;51.252;7.470;2024-03-08T01:41:36;-0.20;99.90
27439;DHT22;14887;51.252;7.470;2024-03-08T01:44:03;-0.30;1.00
27439;DHT22;14887;51.252;7.470;2024-03-08T01:46:29;-0.30;1.00
27439;DHT22;14887;51.252;7.470;2024-03-08T01:48:56;-0.40;1.00
27439;DHT22;14887;51.252;7.470;2024-03-08T01:51:23;-0.40;1.00
27439;DHT22;14887;51.252;7.470;2024-03-08T01:53:51;-0.40;1.00
27439;DHT22;14887;51.252;7.470;2024-03-08T01:56:17;-0.40;1.00
27439;DHT22;14887;51.252;7.470;2024-03-08T01:58:44;-0.40;1.00
27439;DHT22;14887;51.252;7.470;2024-03-08T02:01:12;-0.40;1.00
27439;DHT22;14887;51.252;7.470;2024-03-08T02:03:40;-0.40;1.00
27439;DHT22;14887;51.252;7.470;2024-03-08T02:06:06;-0.50;1.00
27439;DHT22;14887;51.252;7.470;2024-03-08T02:08:36;-0.40;1.00
27439;DHT22;14887;51.252;7.470;2024-03-08T02:11:06;-0.50;1.00
27439;DHT22;14887;51.252;7.470;2024-03-08T02:13:31;-0.40;1.00
27439;DHT22;14887;51.252;7.470;2024-03-08T02:16:00;-0.40;1.00
27439;DHT22;14887;51.252;7.470;2024-03-08T02:18:30;-0.40;99.90
27439;DHT22;14887;51.252;7.470;2024-03-08T02:21:00;-0.50;99.90
27439;DHT22;14887;51.252;7.470;2024-03-08T02:23:30;-0.50;1.00
27439;DHT22;14887;51.252;7.470;2024-03-08T02:25:57;-0.50;1.00
27439;DHT22;14887;51.252;7.470;2024-03-08T02:28:24;-0.60;97.20
27439;DHT22;14887;51.252;7.470;2024-03-08T02:30:52;-0.50;1.00
27439;DHT22;14887;51.252;7.470;2024-03-08T02:33:24;-0.50;1.00
27439;DHT22;14887;51.252;7.470;2024-03-08T02:35:51;-0.50;1.00
27439;DHT22;14887;51.252;7.470;2024-03-08T02:38:21;-0.60;1.00
27439;DHT22;14887;51.252;7.470;2024-03-08T02:40:50;-0.50;1.00
27439;DHT22;14887;51.252;7.470;2024-03-08T02:43:17;-0.60;1.00
27439;DHT22;14887;51.252;7.470;2024-03-08T02:45:47;-0.60;1.00
27439;DHT22;14887;51.252;7.470;2024-03-08T02:48:14;-0.60;1.00
27439;DHT22;14887;51.252;7.470;2024-03-08T02:50:39;-0.50;1.00
27439;DHT22;14887;51.252;7.470;2024-03-08T02:53:06;-0.60;1.00
27439;DHT22;14887;51.252;7.470;2024-03-08T02:55:31;-0.50;99.90
27439;DHT22;14887;51.252;7.470;2024-03-08T02:58:02;-0.50;99.90
27439;DHT22;14887;51.252;7.470;2024-03-08T03:00:29;-0.60;1.00
27439;DHT22;14887;51.252;7.470;2024-03-08T03:02:56;-0.60;99.90
27439;DHT22;14887;51.252;7.470;2024-03-08T03:05:23;-0.60;99.90
27439;DHT22;14887;51.252;7.470;2024-03-08T03:07:50;-0.60;1.00
27439;DHT22;14887;51.252;7.470;2024-03-08T03:10:19;-0.60;99.90
27439;DHT22;14887;51.252;7.470;2024-03-08T03:12:47;-0.50;99.90
27439;DHT22;14887;51.252;7.470;2024-03-08T03:15:17;-0.60;99.90
27439;DHT22;14887;51.252;7.470;2024-03-08T03:17:50;-0.60;99.90
27439;DHT22;14887;51.252;7.470;2024-03-08T03:20:19;-0.60;99.90
27439;DHT22;14887;51.252;7.470;2024-03-08T03:23:06;-0.60;99.90
27439;DHT22;14887;51.252;7.470;2024-03-08T03:25:34;-0.60;99.90
27439;DHT22;14887;51.252;7.470;2024-03-08T03:28:03;-0.60;99.90
27439;DHT22;14887;51.252;7.470;2024-03-08T03:30:30;-0.60;99.90
27439;DHT22;14887;51.252;7.470;2024-03-08T03:33:00;-0.60;1.00
27439;DHT22;14887;51.252;7.470;2024-03-08T03:35:32;-0.60;1.00
27439;DHT22;14887;51.252;7.470;2024-03-08T03:37:58;-0.70;99.90
27439;DHT22;14887;51.252;7.470;2024-03-08T03:40:39;-0.70;1.00
27439;DHT22;14887;51.252;7.470;2024-03-08T03:43:06;-0.60;1.00
27439;DHT22;14887;51.252;7.470;2024-03-08T03:45:32;-0.60;1.00
27439;DHT22;14887;51.252;7.470;2024-03-08T03:48:06;-0.70;1.00
27439;DHT22;14887;51.252;7.470;2024-03-08T03:50:32;-0.60;1.00
27439;DHT22;14887;51.252;7.470;2024-03-08T03:52:59;-0.70;1.00
27439;DHT22;14887;51.252;7.470;2024-03-08T03:55:25;-0.70;1.00
27439;DHT22;14887;51.252;7.470;2024-03-08T03:57:53;-0.70;1.00
27439;DHT22;14887;51.252;7.470;2024-03-08T04:00:19;-0.70;1.00
27439;DHT22;14887;51.252;7.470;2024-03-08T04:02:45;-0.70;99.90
27439;DHT22;14887;51.252;7.470;2024-03-08T04:05:12;-0.70;99.90
27439;DHT22;14887;51.252;7.470;2024-03-08T04:07:38;-0.60;99.90
27439;DHT22;14887;51.252;7.470;2024-03-08T04:10:05;-0.70;99.90
27439;DHT22;14887;51.252;7.470;2024-03-08T04:12:34;-0.70;99.90
27439;DHT22;14887;51.252;7.470;2024-03-08T04:15:02;-0.70;1.00
27439;DHT22;14887;51.252;7.470;2024-03-08T04:17:28;-0.70;1.00
27439;DHT22;14887;51.252;7.470;2024-03-08T04:19:56;-0.70;1.00
27439;DHT22;14887;51.252;7.470;2024-03-08T04:22:22;-0.80;1.00
27439;DHT22;14887;51.252;7.470;2024-03-08T04:24:48;-0.70;1.00
27439;DHT22;14887;51.252;7.470;2024-03-08T04:27:14;-0.70;1.00
27439;DHT22;14887;51.252;7.470;2024-03-08T04:29:40;-0.80;1.00
27439;DHT22;14887;51.252;7.470;2024-03-08T04:32:07;-0.70;1.00
27439;DHT22;14887;51.252;7.470;2024-03-08T04:34:36;-0.70;1.00
27439;DHT22;14887;51.252;7.470;2024-03-08T04:37:02;-0.70;1.00
27439;DHT22;14887;51.252;7.470;2024-03-08T04:39:31;-0.70;1.00
27439;DHT22;14887;51.252;7.470;2024-03-08T04:42:01;-0.70;1.00
27439;DHT22;14887;51.252;7.470;2024-03-08T04:44:31;-0.70;99.90
27439;DHT22;14887;51.252;7.470;2024-03-08T04:46:57;-0.70;99.90
27439;DHT22;14887;51.252;7.470;2024-03-08T04:49:24;-0.70;99.90
27439;DHT22;14887;51.252;7.470;2024-03-08T04:51:51;-0.70;99.90
27439;DHT22;14887;51.252;7.470;2024-03-08T04:54:19;-0.70;99.90
27439;DHT22;14887;51.252;7.470;2024-03-08T04:56:45;-0.70;1.00
27439;DHT22;14887;51.252;7.470;2024-03-08T04:59:10;-0.70;1.00
27439;DHT22;14887;51.252;7.470;2024-03-08T05:01:37;-0.70;1.00
27439;DHT22;14887;51.252;7.470;2024-03-08T05:04:04;-0.80;1.00
27439;DHT22;14887;51.252;7.470;2024-03-08T05:06:31;-0.80;1.00
27439;DHT22;14887;51.252;7.470;2024-03-08T05:08:57;-0.80;1.00
27439;DHT22;14887;51.252;7.470;2024-03-08T05:11:22;-0.80;1.00
27439;DHT22;14887;51.252;7.470;2024-03-08T05:13:50;-0.80;1.00
27439;DHT22;14887;51.252;7.470;2024-03-08T05:16:16;-0.80;99.90
27439;DHT22;14887;51.252;7.470;2024-03-08T05:18:43;-0.80;74.30
27439;DHT22;14887;51.252;7.470;2024-03-08T05:21:12;-0.80;99.90
27439;DHT22;14887;51.252;7.470;2024-03-08T05:24:05;-0.70;99.90
27439;DHT22;14887;51.252;7.470;2024-03-08T05:26:33;-0.70;99.90
27439;DHT22;14887;51.252;7.470;2024-03-08T05:29:01;-0.70;99.90
27439;DHT22;14887;51.252;7.470;2024-03-08T05:31:29;-0.70;99.90
27439;DHT22;14887;51.252;7.470;2024-03-08T05:33:57;-0.70;99.90
27439;DHT22;14887;51.252;7.470;2024-03-08T05:36:24;-0.80;99.90
27439;DHT22;14887;51.252;7.470;2024-03-08T05:38:57;-0.90;1.00
27439;DHT22;14887;51.252;7.470;2024-03-08T05:41:29;-0.80;74.50
27439;DHT22;14887;51.252;7.470;2024-03-08T05:43:56;-0.90;19.20
27439;DHT22;14887;51.252;7.470;2024-03-08T05:46:22;-0.90;99.90
27439;DHT22;14887;51.252;7.470;2024-03-08T05:48:48;-0.90;8.50
27439;DHT22;14887;51.252;7.470;2024-03-08T05:51:14;-0.90;99.90
27439;DHT22;14887;51.252;7.470;2024-03-08T05:53:39;-1.00;99.90
27439;DHT22;14887;51.252;7.470;2024-03-08T05:56:05;-0.90;1.00
27439;DHT22;14887;51.252;7.470;2024-03-08T05:58:31;-0.90;1.00
27439;DHT22;14887;51.252;7.470;2024-03-08T06:00:57;-0.90;1.00
27439;DHT22;14887;51.252;7.470;2024-03-08T06:03:25;-0.90;1.00
27439;DHT22;14887;51.252;7.470;2024-03-08T06:05:51;-0.90;1.00
27439;DHT22;14887;51.252;7.470;2024-03-08T06:08:17;-1.00;1.00
27439;DHT22;14887;51.252;7.470;2024-03-08T06:10:44;-0.90;1.00
27439;DHT22;14887;51.252;7.470;2024-03-08T06:13:16;-0.90;1.00
27439;DHT22;14887;51.252;7.470;2024-03-08T06:15:42;-0.90;1.00
27439;DHT22;14887;51.252;7.470;2024-03-08T06:18:11;-0.90;1.00
27439;DHT22;14887;51.252;7.470;2024-03-08T06:20:37;-0.90;1.00
27439;DHT22;14887;51.252;7.470;2024-03-08T06:23:05;-0.90;1.00
27439;DHT22;14887;51.252;7.470;2024-03-08T06:25:31;-0.90;1.00
27439;DHT22;14887;51.252;7.470;2024-03-08T06:27:57;-0.80;10.60
27439;DHT22;14887;51.252;7.470;2024-03-08T06:30:25;-0.80;1.00
27439;DHT22;14887;51.252;7.470;2024-03-08T06:32:51;-0.80;1.00
27439;DHT22;14887;51.252;7.470;2024-03-08T06:35:18;-0.70;1.00
27439;DHT22;14887;51.252;7.470;2024-03-08T06:37:46;-0.70;1.00
27439;DHT22;14887;51.252;7.470;2024-03-08T06:40:14;-0.60;1.00
27439;DHT22;14887;51.252;7.470;2024-03-08T06:42:40;-0.60;99.90
27439;DHT22;14887;51.252;7.470;2024-03-08T06:45:07;-0.60;99.90
27439;DHT22;14887;51.252;7.470;2024-03-08T06:47:36;-0.50;99.90
27439;DHT22;14887;51.252;7.470;2024-03-08T06:50:03;-0.50;1.00
27439;DHT22;14887;51.252;7.470;2024-03-08T06:52:29;-0.40;1.00
27439;DHT22;14887;51.252;7.470;2024-03-08T06:54:57;-0.40;1.00
27439;DHT22;14887;51.252;7.470;2024-03-08T06:57:23;-0.30;1.00
27439;DHT22;14887;51.252;7.470;2024-03-08T06:59:49;-0.30;1.00
27439;DHT22;14887;51.252;7.470;2024-03-08T07:02:16;-0.20;99.90
27439;DHT22;14887;51.252;7.470;2024-03-08T07:04:42;-0.20;99.90
27439;DHT22;14887;51.252;7.470;2024-03-08T07:07:08;-0.10;99.90
27439;DHT22;14887;51.252;7.470;2024-03-08T07:09:35;-0.10;99.90
27439;DHT22;14887;51.252;7.470;2024-03-08T07:12:02;0.00;1.00
27439;DHT22;14887;51.252;7.470;2024-03-08T07:14:29;0.10;1.00
27439;DHT22;14887;51.252;7.470;2024-03-08T07:16:57;0.20;1.00
27439;DHT22;14887;51.252;7.470;2024-03-08T07:19:22;0.30;99.90
27439;DHT22;14887;51.252;7.470;2024-03-08T07:21:52;0.30;99.90
27439;DHT22;14887;51.252;7.470;2024-03-08T07:24:23;0.40;99.90
27439;DHT22;14887;51.252;7.470;2024-03-08T07:27:08;0.40;99.90
27439;DHT22;14887;51.252;7.470;2024-03-08T07:29:34;0.50;99.90
27439;DHT22;14887;51.252;7.470;2024-03-08T07:32:00;0.50;84.80
27439;DHT22;14887;51.252;7.470;2024-03-08T07:34:59;0.60;11.10
27439;DHT22;14887;51.252;7.470;2024-03-08T07:37:25;0.70;1.00
27439;DHT22;14887;51.252;7.470;2024-03-08T07:39:55;0.80;1.00
27439;DHT22;14887;51.252;7.470;2024-03-08T07:43:10;0.90;1.00
27439;DHT22;14887;51.252;7.470;2024-03-08T07:45:17;1.00;1.00
27439;DHT22;14887;51.252;7.470;2024-03-08T07:47:45;1.00;1.00
27439;DHT22;14887;51.252;7.470;2024-03-08T07:50:18;1.10;1.00
27439;DHT22;14887;51.252;7.470;2024-03-08T07:52:45;1.20;1.00
27439;DHT22;14887;51.252;7.470;2024-03-08T07:55:33;2.00;99.90
27439;DHT22;14887;51.252;7.470;2024-03-08T07:57:59;3.60;99.90
27439;DHT22;14887;51.252;7.470;2024-03-08T08:00:25;4.70;1.00
27439;DHT22;14887;51.252;7.470;2024-03-08T08:02:53;5.50;1.00
27439;DHT22;14887;51.252;7.470;2024-03-08T08:05:33;6.20;1.00
27439;DHT22;14887;51.252;7.470;2024-03-08T08:08:02;7.00;1.00
27439;DHT22;14887;51.252;7.470;2024-03-08T08:10:37;7.10;99.90
27439;DHT22;14887;51.252;7.470;2024-03-08T08:13:05;7.20;99.90
27439;DHT22;14887;51.252;7.470;2024-03-08T08:15:31;7.40;99.90
27439;DHT22;14887;51.252;7.470;2024-03-08T08:18:01;7.70;99.90
27439;DHT22;14887;51.252;7.470;2024-03-08T08:20:28;7.80;99.90
27439;DHT22;14887;51.252;7.470;2024-03-08T08:23:00;8.00;99.90
27439;DHT22;14887;51.252;7.470;2024-03-08T08:25:26;8.20;99.90
27439;DHT22;14887;51.252;7.470;2024-03-08T08:27:54;8.20;99.90
27439;DHT22;14887;51.252;7.470;2024-03-08T08:30:23;8.40;99.90
27439;DHT22;14887;51.252;7.470;2024-03-08T08:32:49;8.30;99.90
27439;DHT22;14887;51.252;7.470;2024-03-08T08:35:15;8.30;99.90
27439;DHT22;14887;51.252;7.470;2024-03-08T08:37:41;8.50;99.90
27439;DHT22;14887;51.252;7.470;2024-03-08T08:40:08;8.50;99.90
27439;DHT22;14887;51.252;7.470;2024-03-08T08:42:40;8.60;99.90
27439;DHT22;14887;51.252;7.470;2024-03-08T08:45:07;8.90;99.90
27439;DHT22;14887;51.252;7.470;2024-03-08T08:47:36;8.70;99.90
27439;DHT22;14887;51.252;7.470;2024-03-08T08:50:04;8.90;99.90
27439;DHT22;14887;51.252;7.470;2024-03-08T08:52:31;9.00;99.90
27439;DHT22;14887;51.252;7.470;2024-03-08T08:54:58;9.00;99.90
27439;DHT22;14887;51.252;7.470;2024-03-08T08:57:25;8.90;99.90
27439;DHT22;14887;51.252;7.470;2024-03-08T08:59:52;8.90;99.90
27439;DHT22;14887;51.252;7.470;2024-03-08T09:02:18;8.90;99.90
27439;DHT22;14887;51.252;7.470;2024-03-08T09:04:47;8.90;99.90
27439;DHT22;14887;51.252;7.470;2024-03-08T09:07:18;8.70;99.90
27439;DHT22;14887;51.252;7.470;2024-03-08T09:09:45;9.00;99.90
27439;DHT22;14887;51.252;7.470;2024-03-08T09:12:12;9.00;99.90
27439;DHT22;14887;51.252;7.470;2024-03-08T09:14:40;9.20;99.90
27439;DHT22;14887;51.252;7.470;2024-03-08T09:17:08;9.10;99.90
27439;DHT22;14887;51.252;7.470;2024-03-08T09:19:35;9.20;99.90
27439;DHT22;14887;51.252;7.470;2024-03-08T09:22:06;9.40;99.90
27439;DHT22;14887;51.252;7.470;2024-03-08T09:24:32;9.40;99.90
27439;DHT22;14887;51.252;7.470;2024-03-08T09:26:58;9.50;99.90
27439;DHT22;14887;51.252;7.470;2024-03-08T09:29:28;9.30;99.90
27439;DHT22;14887;51.252;7.470;2024-03-08T09:31:57;9.50;99.90
27439;DHT22;14887;51.252;7.470;2024-03-08T09:34:23;9.30;99.90
27439;DHT22;14887;51.252;7.470;2024-03-08T09:36:49;9.00;99.90
27439;DHT22;14887;51.252;7.470;2024-03-08T09:39:19;9.00;99.90
27439;DHT22;14887;51.252;7.470;2024-03-08T09:41:47;9.00;99.90
27439;DHT22;14887;51.252;7.470;2024-03-08T09:44:18;9.30;99.90
27439;DHT22;14887;51.252;7.470;2024-03-08T09:46:46;9.20;99.90
27439;DHT22;14887;51.252;7.470;2024-03-08T09:49:16;9.50;99.90
27439;DHT22;14887;51.252;7.470;2024-03-08T09:51:42;9.50;99.90
27439;DHT22;14887;51.252;7.470;2024-03-08T09:54:10;9.70;99.90
27439;DHT22;14887;51.252;7.470;2024-03-08T09:56:41;9.80;99.90
27439;DHT22;14887;51.252;7.470;2024-03-08T09:59:19;10.00;99.90
27439;DHT22;14887;51.252;7.470;2024-03-08T10:01:51;9.60;99.90
27439;DHT22;14887;51.252;7.470;2024-03-08T10:04:25;9.90;99.90
27439;DHT22;14887;51.252;7.470;2024-03-08T10:07:13;10.00;99.90
27439;DHT22;14887;51.252;7.470;2024-03-08T10:09:39;9.70;99.90
27439;DHT22;14887;51.252;7.470;2024-03-08T10:12:18;10.10;99.90
27439;DHT22;14887;51.252;7.470;2024-03-08T10:15:06;10.50;99.90
27439;DHT22;14887;51.252;7.470;2024-03-08T10:17:35;10.40;99.90
27439;DHT22;14887;51.252;7.470;2024-03-08T10:20:22;10.50;99.90
27439;DHT22;14887;51.252;7.470;2024-03-08T10:22:50;10.60;99.90
27439;DHT22;14887;51.252;7.470;2024-03-08T10:25:37;10.40;99.90
27439;DHT22;14887;51.252;7.470;2024-03-08T10:28:28;10.20;99.90
27439;DHT22;14887;51.252;7.470;2024-03-08T10:30:57;10.20;99.90
27439;DHT22;14887;51.252;7.470;2024-03-08T10:33:26;10.10;99.90
27439;DHT22;14887;51.252;7.470;2024-03-08T10:35:58;9.90;99.90
27439;DHT22;14887;51.252;7.470;2024-03-08T10:38:24;9.90;99.90
27439;DHT22;14887;51.252;7.470;2024-03-08T10:40:52;10.10;99.90
27439;DHT22;14887;51.252;7.470;2024-03-08T10:43:24;10.30;99.90
27439;DHT22;14887;51.252;7.470;2024-03-08T10:46:03;10.40;99.90
27439;DHT22;14887;51.252;7.470;2024-03-08T10:48:32;10.60;99.90
27439;DHT22;14887;51.252;7.470;2024-03-08T10:51:04;10.70;99.90
27439;DHT22;14887;51.252;7.470;2024-03-08T10:53:30;10.20;99.90
27439;DHT22;14887;51.252;7.470;2024-03-08T10:55:57;10.00;99.90
27439;DHT22;14887;51.252;7.470;2024-03-08T10:58:27;10.10;99.90
27439;DHT22;14887;51.252;7.470;2024-03-08T11:00:55;10.00;99.90
27439;DHT22;14887;51.252;7.470;2024-03-08T11:03:44;10.20;99.90
27439;DHT22;14887;51.252;7.470;2024-03-08T11:06:18;10.40;99.90
27439;DHT22;14887;51.252;7.470;2024-03-08T11:08:49;10.60;99.90
27439;DHT22;14887;51.252;7.470;2024-03-08T11:11:31;10.50;99.90
27439;DHT22;14887;51.252;7.470;2024-03-08T11:13:58;10.60;99.90
27439;DHT22;14887;51.252;7.470;2024-03-08T11:18:55;10.00;99.90
27439;DHT22;14887;51.252;7.470;2024-03-08T11:21:26;10.00;99.90
27439;DHT22;14887;51.252;7.470;2024-03-08T11:24:08;9.90;99.90
27439;DHT22;14887;51.252;7.470;2024-03-08T11:26:39;9.90;99.90
27439;DHT22;14887;51.252;7.470;2024-03-08T11:32:12;10.30;99.90
27439;DHT22;14887;51.252;7.470;2024-03-08T11:34:45;10.50;99.90
27439;DHT22;14887;51.252;7.470;2024-03-08T11:37:18;10.50;99.90
27439;DHT22;14887;51.252;7.470;2024-03-08T11:39:50;10.70;99.90
27439;DHT22;14887;51.252;7.470;2024-03-08T11:42:23;10.60;99.90
27439;DHT22;14887;51.252;7.470;2024-03-08T11:44:53;10.50;99.90
27439;DHT22;14887;51.252;7.470;2024-03-08T11:47:19;10.70;99.90
27439;DHT22;14887;51.252;7.470;2024-03-08T11:49:46;10.70;99.90
27439;DHT22;14887;51.252;7.470;2024-03-08T11:52:15;10.80;99.90
27439;DHT22;14887;51.252;7.470;2024-03-08T11:54:42;10.60;99.90
27439;DHT22;14887;51.252;7.470;2024-03-08T11:57:10;10.80;99.90
27439;DHT22;14887;51.252;7.470;2024-03-08T11:59:38;10.80;99.90
27439;DHT22;14887;51.252;7.470;2024-03-08T12:02:05;10.90;99.90
27439;DHT22;14887;51.252;7.470;2024-03-08T12:04:32;11.00;99.90
27439;DHT22;14887;51.252;7.470;2024-03-08T12:07:01;11.10;99.90
27439;DHT22;14887;51.252;7.470;2024-03-08T12:09:35;11.60;99.90
27439;DHT22;14887;51.252;7.470;2024-03-08T12:12:04;11.60;99.90
27439;DHT22;14887;51.252;7.470;2024-03-08T12:14:33;11.90;99.90
27439;DHT22;14887;51.252;7.470;2024-03-08T12:16:59;12.20;99.90
27439;DHT22;14887;51.252;7.470;2024-03-08T12:19:31;12.80;99.90
27439;DHT22;14887;51.252;7.470;2024-03-08T12:21:56;12.80;99.90
27439;DHT22;14887;51.252;7.470;2024-03-08T12:24:23;12.90;99.90
27439;DHT22;14887;51.252;7.470;2024-03-08T12:26:49;12.50;99.90
27439;DHT22;14887;51.252;7.470;2024-03-08T12:29:20;12.70;99.90
27439;DHT22;14887;51.252;7.470;2024-03-08T12:31:52;12.70;99.90
27439;DHT22;14887;51.252;7.470;2024-03-08T12:34:19;13.10;99.90
27439;DHT22;14887;51.252;7.470;2024-03-08T12:36:49;13.60;99.90
27439;DHT22;14887;51.252;7.470;2024-03-08T12:39:16;13.50;99.90
27439;DHT22;14887;51.252;7.470;2024-03-08T12:41:44;13.70;99.90
27439;DHT22;14887;51.252;7.470;2024-03-08T12:44:12;13.80;99.90
27439;DHT22;14887;51.252;7.470;2024-03-08T12:46:38;13.90;99.90
27439;DHT22;14887;51.252;7.470;2024-03-08T12:49:09;14.20;99.90
27439;DHT22;14887;51.252;7.470;2024-03-08T12:51:36;14.30;99.90
27439;DHT22;14887;51.252;7.470;2024-03-08T12:54:02;14.60;99.90
27439;DHT22;14887;51.252;7.470;2024-03-08T12:56:32;14.40;99.90
27439;DHT22;14887;51.252;7.470;2024-03-08T12:58:59;14.20;99.90
27439;DHT22;14887;51.252;7.470;2024-03-08T13:01:26;14.20;99.90
27439;DHT22;14887;51.252;7.470;2024-03-08T13:03:53;14.10;99.90
27439;DHT22;14887;51.252;7.470;2024-03-08T13:06:19;14.30;99.90
27439;DHT22;14887;51.252;7.470;2024-03-08T13:08:48;14.50;99.90
27439;DHT22;14887;51.252;7.470;2024-03-08T13:11:14;15.10;99.90
27439;DHT22;14887;51.252;7.470;2024-03-08T13:13:42;15.00;99.90
27439;DHT22;14887;51.252;7.470;2024-03-08T13:16:09;15.20;99.90
27439;DHT22;14887;51.252;7.470;2024-03-08T13:18:35;15.50;99.90
27439;DHT22;14887;51.252;7.470;2024-03-08T13:21:01;15.60;99.90
27439;DHT22;14887;51.252;7.470;2024-03-08T13:23:34;15.40;99.90
27439;DHT22;14887;51.252;7.470;2024-03-08T13:26:10;15.30;99.90
27439;DHT22;14887;51.252;7.470;2024-03-08T13:28:50;15.90;99.90
27439;DHT22;14887;51.252;7.470;2024-03-08T13:31:22;16.00;99.90
27439;DHT22;14887;51.252;7.470;2024-03-08T13:33:49;15.70;99.90
27439;DHT22;14887;51.252;7.470;2024-03-08T13:36:17;16.50;99.90
27439;DHT22;14887;51.252;7.470;2024-03-08T13:38:48;17.40;99.90
27439;DHT22;14887;51.252;7.470;2024-03-08T13:41:15;17.70;99.90
27439;DHT22;14887;51.252;7.470;2024-03-08T13:43:46;17.80;99.90
27439;DHT22;14887;51.252;7.470;2024-03-08T13:46:12;18.20;99.90
27439;DHT22;14887;51.252;7.470;2024-03-08T13:48:39;18.60;99.90
27439;DHT22;14887;51.252;7.470;2024-03-08T13:51:06;18.30;99.90
27439;DHT22;14887;51.252;7.470;2024-03-08T13:53:34;18.70;99.90
27439;DHT22;14887;51.252;7.470;2024-03-08T13:56:04;19.10;99.90
27439;DHT22;14887;51.252;7.470;2024-03-08T13:58:32;18.80;99.90
27439;DHT22;14887;51.252;7.470;2024-03-08T14:00:59;18.70;99.90
27439;DHT22;14887;51.252;7.470;2024-03-08T14:03:27;19.10;99.90
27439;DHT22;14887;51.252;7.470;2024-03-08T14:05:53;19.10;99.90
27439;DHT22;14887;51.252;7.470;2024-03-08T14:08:22;19.60;99.90
27439;DHT22;14887;51.252;7.470;2024-03-08T14:10:54;19.40;99.90
27439;DHT22;14887;51.252;7.470;2024-03-08T14:13:42;19.00;99.90
27439;DHT22;14887;51.252;7.470;2024-03-08T14:16:12;18.90;99.90
27439;DHT22;14887;51.252;7.470;2024-03-08T14:18:41;19.00;99.90
27439;DHT22;14887;51.252;7.470;2024-03-08T14:21:09;19.00;99.90
27439;DHT22;14887;51.252;7.470;2024-03-08T14:23:36;19.10;99.90
27439;DHT22;14887;51.252;7.470;2024-03-08T14:26:08;18.80;99.90
27439;DHT22;14887;51.252;7.470;2024-03-08T14:28:35;18.80;99.90
27439;DHT22;14887;51.252;7.470;2024-03-08T14:31:07;18.40;99.90
27439;DHT22;14887;51.252;7.470;2024-03-08T14:33:39;18.70;99.90
27439;DHT22;14887;51.252;7.470;2024-03-08T14:36:07;18.50;99.90
27439;DHT22;14887;51.252;7.470;2024-03-08T14:38:43;18.90;99.90
27439;DHT22;14887;51.252;7.470;2024-03-08T14:41:13;19.00;99.90
27439;DHT22;14887;51.252;7.470;2024-03-08T14:43:48;18.90;99.90
27439;DHT22;14887;51.252;7.470;2024-03-08T14:46:14;18.90;99.90
27439;DHT22;14887;51.252;7.470;2024-03-08T14:48:46;18.60;99.90
27439;DHT22;14887;51.252;7.470;2024-03-08T14:51:14;18.50;99.90
27439;DHT22;14887;51.252;7.470;2024-03-08T14:53:41;18.50;99.90
27439;DHT22;14887;51.252;7.470;2024-03-08T14:59:08;18.60;99.90
27439;DHT22;14887;51.252;7.470;2024-03-08T15:01:35;19.10;99.90
27439;DHT22;14887;51.252;7.470;2024-03-08T15:04:02;18.40;99.90
27439;DHT22;14887;51.252;7.470;2024-03-08T15:06:40;18.40;99.90
27439;DHT22;14887;51.252;7.470;2024-03-08T15:09:08;19.20;99.90
27439;DHT22;14887;51.252;7.470;2024-03-08T15:11:41;20.40;99.90
27439;DHT22;14887;51.252;7.470;2024-03-08T15:14:08;20.90;99.90
27439;DHT22;14887;51.252;7.470;2024-03-08T15:16:40;20.30;99.90
27439;DHT22;14887;51.252;7.470;2024-03-08T15:19:08;19.60;99.90
27439;DHT22;14887;51.252;7.470;2024-03-08T15:21:37;19.20;99.90
27439;DHT22;14887;51.252;7.470;2024-03-08T15:24:04;18.90;99.90
27439;DHT22;14887;51.252;7.470;2024-03-08T15:26:30;18.50;99.90
27439;DHT22;14887;51.252;7.470;2024-03-08T15:28:58;17.30;99.90
27439;DHT22;14887;51.252;7.470;2024-03-08T15:31:25;17.30;99.90
27439;DHT22;14887;51.252;7.470;2024-03-08T15:33:51;17.50;99.90
27439;DHT22;14887;51.252;7.470;2024-03-08T15:36:24;17.80;99.90
27439;DHT22;14887;51.252;7.470;2024-03-08T15:38:54;17.30;99.90
27439;DHT22;14887;51.252;7.470;2024-03-08T15:41:20;17.00;99.90
27439;DHT22;14887;51.252;7.470;2024-03-08T15:43:48;16.90;99.90
27439;DHT22;14887;51.252;7.470;2024-03-08T15:46:15;17.20;99.90
27439;DHT22;14887;51.252;7.470;2024-03-08T15:48:41;17.10;99.90
27439;DHT22;14887;51.252;7.470;2024-03-08T15:51:08;16.90;99.90
27439;DHT22;14887;51.252;7.470;2024-03-08T15:53:37;16.60;99.90
27439;DHT22;14887;51.252;7.470;2024-03-08T15:56:05;15.80;99.90
27439;DHT22;14887;51.252;7.470;2024-03-08T15:58:31;15.60;99.90